This is the latest recevied weather packets stored in our database for station/object HB9KBJ-8. If no packets are shown the sender has not sent any weather packets the latest 1 day(s).
| Time | Temp. | Humidity | Pressure | Rain* | Wind** | Luminosity | Snow |
|---|---|---|---|---|---|---|---|
| 1778081847 | 11.67° C | 82% | 1009.5 hPa | 0 mm | - | 139 W/m² | - |
| 1778081541 | 11.67° C | 83% | 1009.5 hPa | 0 mm | - | 188 W/m² | - |
| 1778080938 | 11.67° C | 83% | 1009.5 hPa | 0 mm | - | 200 W/m² | - |
| 1778080338 | 11.67° C | 84% | 1009.4 hPa | 0 mm | - | 199 W/m² | - |
| 1778080051 | 11.11° C | 83% | 1009.4 hPa | 0 mm | - | 192 W/m² | - |
| 1778079750 | 11.67° C | 84% | 1009.5 hPa | 0 mm | - | 181 W/m² | - |
| 1778079446 | 11.11° C | 84% | 1009.4 hPa | 0 mm | - | 165 W/m² | - |
| 1778078234 | 11.11° C | 84% | 1009.3 hPa | 0 mm | - | 123 W/m² | - |
| 1778077953 | 11.11° C | 84% | 1009.3 hPa | 0 mm | - | 113 W/m² | - |
| 1778074949 | 11.11° C | 86% | 1009.1 hPa | 0 mm | - | 220 W/m² | - |
| 1778074346 | 10.56° C | 87% | 1009.1 hPa | 0 mm | - | 214 W/m² | - |
| 1778074037 | 10.56° C | 88% | 1009 hPa | 0.25 mm | - | 183 W/m² | - |
| 1778073753 | 10.56° C | 88% | 1009 hPa | 0.51 mm | - | 174 W/m² | - |
| 1778072238 | 10° C | 88% | 1009.1 hPa | 1.52 mm | - | 137 W/m² | - |
| 1778071654 | 10° C | 88% | 1009.1 hPa | 1.52 mm | - | 100 W/m² | - |
| 1778070443 | 10° C | 88% | 1008.8 hPa | 1.78 mm | - | 70 W/m² | - |
| 1778070141 | 10° C | 88% | 1008.8 hPa | 1.52 mm | - | 67 W/m² | - |
| 1778068647 | 10° C | 88% | 1008.6 hPa | 0.51 mm | - | 47 W/m² | - |
| 1778068345 | 10° C | 88% | 1008.6 hPa | 0.51 mm | - | 49 W/m² | - |
| 1778067436 | 10.56° C | 88% | 1008.3 hPa | 0.25 mm | - | 54 W/m² | - |
| 1778067133 | 11.11° C | 87% | 1008.1 hPa | 0.25 mm | - | 58 W/m² | - |
| 1778066850 | 11.11° C | 87% | 1008.1 hPa | 0 mm | - | 69 W/m² | - |
| 1778065640 | 12.22° C | 85% | 1007.5 hPa | 0 mm | - | 84 W/m² | - |
| 1778064743 | 12.78° C | 85% | 1007.4 hPa | 0.25 mm | - | 142 W/m² | - |
| 1778064439 | 12.78° C | 85% | 1007.4 hPa | 0.25 mm | - | 146 W/m² | - |
* Rain latest hour (hover to see other rain measurements)
** Current wind speed in m/s (hover to see current wind gust speed)